• Join FlightAware (Why Join?)
  • Login
  • US Flag 
07:15AM EDT


 

Airport Tracker/Info


-or-


 

Live Flight TrackerFlight Track Log ✈ N775NC ✈ 13-Oct-2013 ✈ KGSP - KATL

Flight Track Log - Related Links

Times and Time Zones

All times are in EDT time to prevent confusion due to time zone crossing. See the N775NC flight status page for this flight to view local times or setup timezone preferences in your user account.

Time Position Orientation Groundspeed Altitude Reporting Facility
EDT Latitude Longitude Course Direction KTS MPH feet Rate Location/Type
01:44PM 34.9700 -82.1936 252° West 236 272 3,500  Level Atlanta Center
01:45PM 34.9689 -82.2722 269° West 253 291 5,200 2,100 Climbing Atlanta Center
01:46PM 34.7328 -82.5125 259° West  Level Estimated
01:46PM 34.9286 -82.3592 241° Southwest 252 290 7,800  Level Atlanta Center
01:47PM 34.6919 -82.5857 261° West  Level Estimated
01:47PM 34.8942 -82.4458 244° Southwest 276 318 10,400  Level Atlanta Center
01:48PM 34.6510 -82.6589 252° West  Level Estimated
01:48PM 34.8622 -82.5478 249° West 300 345 11,100  Level Atlanta Center
01:49PM 34.8153 -82.6575 242° Southwest 336 387 13,500 2,160 Climbing Atlanta Center
01:50PM 34.7644 -82.7594 239° Southwest 349 402 15,500 1,800 Climbing Atlanta Center
01:51PM 34.7133 -82.8689 240° Southwest 362 417 17,200 1,620 Climbing Atlanta Center
01:52PM 34.6581 -82.9858 240° Southwest 367 422 18,800 1,500 Climbing Atlanta Center
01:53PM 34.6067 -83.0975 241° Southwest 372 428 20,300 480 Climbing Atlanta Center
01:54PM 34.5450 -83.2117 237° Southwest 399 459 19,800 -180 Descending Atlanta Center
01:55PM 34.4642 -83.3106 225° Southwest 413 475 20,000 -420 Climbing Atlanta Center
01:56PM 34.3897 -83.4194 230° Southwest 418 481 19,000 -1,140 Descending Atlanta Center
01:57PM 34.3128 -83.5181 227° Southwest 408 470 17,800 -1,260 Descending Atlanta Center
01:58PM 34.2464 -83.6142 230° Southwest 398 458 16,500 -1,440 Descending Atlanta Center
01:59PM 34.1778 -83.7072 228° Southwest 382 440 15,000 -1,260 Descending Atlanta Center
02:00PM 34.1114 -83.8006 229° Southwest 377 434 14,000 -540 Descending Atlanta Center
02:01PM 34.0489 -83.8858 229° Southwest 377 434 14,000 -420 Level Atlanta Center
02:02PM 33.9800 -83.9786 228° Southwest 377 434 13,200 -900 Descending Atlanta Center
02:03PM 33.9092 -84.0764 229° Southwest 383 441 12,300 -600 Descending Atlanta Center
02:04PM 33.8358 -84.1739 228° Southwest 388 447 12,100 -180 Descending Atlanta Center
02:05PM 33.7669 -84.2711 230° Southwest 368 423 12,000 -900 Descending Atlanta Center
02:06PM 33.7417 -84.3661 252° West 320 368 10,300 -1,860 Descending Atlanta Center
02:07PM 33.7308 -84.4633 262° West 297 342 8,300 -1,860 Descending Atlanta Center
02:08PM 33.7333 -84.6000 271° West 283 326 6,000 -1,620 Descending Atlanta TRACON
02:09PM 33.7000 -84.6500 231° Southwest 262 302 4,500 -1,320 Descending Atlanta TRACON
02:10PM 33.6500 -84.6000 140° Southeast 243 280 3,400 -1,200 Descending Atlanta TRACON
02:11PM 33.6500 -84.5167 90° East 214 246 2,200 -1,020 Descending Atlanta TRACON
02:12PM 33.6500 -84.4667 90° East 158 182 1,400 -840 Descending Atlanta TRACON